Aeroporto :
LOGIN :

Iscrizione | Disclaimer

   EN    FR    IT 

 










Sommario :    VFR   VFR Marginale   IFR   IFR Intensivo   IFR Molto Intensivo
Visibilità : 
Base nubi : 
>= 8 km
>= 3000ft
5 / 8 km
1000 / 3000 ft
1500m / 5 km
500 / 1000 ft
800 / 1500m
200 / 500 ft
< 800m
< 200 ft
Simboli :   Temporali  Nebbia  Neve Forte  Precipitazioni Forti  Vento > 20 kt
SIGMETs :   Varie  Temporali  Ghiacco  Turbolenza  Onda orograficha  Ceneri Vulcaniche






- Altitudine del aeroporto : 1079 ft


ETIK - Illesheim Air Base

ULTIMO METAR :
  • 240756Z AUTO 24010KT 9999 OVC048 15/12 A3011 RMK AO2 SLP194 T01490118 $

METARs OBSOLETI :
  • 240656Z AUTO 22007KT 9999 OVC044 14/11 A3010 RMK AO2 SLP191 T01360113
  • 240556Z AUTO 24008KT 9999 BKN041 OVC048 13/11 A3010 RMK AO2 SLP192 T01260108 10135 20113 53008 $

TAF TAF ETIK
Valido dal 24 a 06 ore il 25 a 12 ore UTC


240601Z 2406/2512 26009KT 9999 BKN040 QNH3001INS
BECMG 2410/2411 27010G15KT 9999 BKN030 QNH3004INS
BECMG 2422/2423 23009KT 9999 FEW050 QNH3008INS
BECMG 2507/2508 23009KT 9999 SKC QNH3006INS TX22/2414Z TN10/2505Z



MetMap, La meteo Aeronautica in un colpo d'occhio ! - Copyright ORBIFLY Dicembre 2007 - Disclaimer

ORBIFLY MET'MAP TEAM :

Programmazione e sviluppo : Alexandra Zaïnal
Concezione : Baudouin d'Aumeries
Aiuto per la programmazione : Marc-Olivier Méhu
Supporto tecnico e logistico : Manuel Goepfert
Aiuto per la traduzione : Arnaldo La Scala

Contatto : metmap@orbifly.com




FONTI E CREDITI :

   NOAA